createdAt,value
2018-04-19T00:01:15.926Z,17.40
2018-04-19T00:03:43.389Z,20.00
2018-04-19T00:06:10.847Z,22.47
2018-04-19T00:08:38.294Z,20.70
2018-04-19T00:11:06.525Z,18.07
2018-04-19T00:13:33.992Z,18.07
2018-04-19T00:16:01.476Z,17.97
2018-04-19T00:18:28.930Z,18.70
2018-04-19T00:20:56.368Z,18.10
2018-04-19T00:23:23.824Z,19.73
2018-04-19T00:25:51.282Z,22.57
2018-04-19T00:28:18.759Z,17.67
2018-04-19T00:30:46.215Z,20.90
2018-04-19T00:33:14.440Z,16.63
2018-04-19T00:35:41.893Z,19.43
2018-04-19T00:38:09.371Z,19.37
2018-04-19T00:40:36.867Z,18.63
2018-04-19T00:43:04.326Z,19.10
2018-04-19T00:45:31.781Z,18.17
2018-04-19T00:47:59.231Z,18.17
2018-04-19T00:50:27.506Z,17.40
2018-04-19T00:53:07.611Z,18.40
2018-04-19T00:55:35.090Z,17.80
2018-04-19T00:58:02.580Z,17.07
2018-04-19T01:00:30.047Z,16.70
2018-04-19T01:02:58.314Z,15.63
2018-04-19T01:05:26.539Z,19.03
2018-04-19T01:07:54.012Z,21.33
2018-04-19T01:10:21.526Z,18.17
2018-04-19T01:12:49.001Z,18.00
2018-04-19T01:15:16.440Z,19.10
2018-04-19T01:17:43.889Z,17.47
2018-04-19T01:20:12.107Z,16.70
2018-04-19T01:22:39.569Z,18.57
2018-04-19T01:25:07.034Z,19.60
2018-04-19T01:27:34.510Z,17.93
2018-04-19T01:30:01.969Z,18.10
2018-04-19T01:32:29.427Z,17.20
2018-04-19T01:34:56.890Z,19.93
2018-04-19T01:37:24.362Z,17.97
2018-04-19T01:39:52.584Z,17.23
2018-04-19T01:42:20.054Z,19.47
2018-04-19T01:44:48.267Z,18.00
2018-04-19T01:47:15.715Z,19.97
2018-04-19T01:49:43.171Z,17.53
2018-04-19T01:52:10.666Z,17.17
2018-04-19T01:54:38.145Z,19.90
2018-04-19T01:57:05.581Z,18.90
2018-04-19T01:59:33.043Z,19.00
2018-04-19T02:02:00.480Z,20.60
2018-04-19T02:04:27.952Z,17.53
2018-04-19T02:06:55.459Z,19.67
2018-04-19T02:09:22.918Z,18.60
2018-04-19T02:11:50.371Z,19.67
2018-04-19T02:14:17.828Z,17.50
2018-04-19T02:16:45.288Z,18.47
2018-04-19T02:19:13.599Z,19.00
2018-04-19T02:21:41.042Z,18.93
2018-04-19T02:24:08.523Z,18.13
2018-04-19T02:26:35.957Z,18.10
2018-04-19T02:29:03.407Z,19.10
2018-04-19T02:31:31.656Z,17.13
2018-04-19T02:33:59.126Z,17.57
2018-04-19T02:36:26.595Z,19.07
2018-04-19T02:38:54.343Z,20.27
2018-04-19T02:41:21.803Z,19.87
2018-04-19T02:43:49.282Z,18.17
2018-04-19T02:46:16.732Z,19.40
2018-04-19T02:48:44.222Z,17.93
2018-04-19T02:51:11.731Z,19.87
2018-04-19T02:53:39.959Z,19.07
2018-04-19T02:56:07.413Z,19.57
2018-04-19T02:58:34.870Z,20.40
2018-04-19T03:01:02.327Z,19.60
2018-04-19T03:03:30.568Z,18.83
2018-04-19T03:05:58.006Z,20.23
2018-04-19T03:08:25.466Z,20.17
2018-04-19T03:10:52.927Z,18.83
2018-04-19T03:13:20.410Z,20.47
2018-04-19T03:15:47.888Z,19.60
2018-04-19T03:18:15.344Z,20.20
2018-04-19T03:20:43.574Z,19.47
2018-04-19T03:23:11.038Z,18.87
2018-04-19T03:25:40.175Z,22.23
2018-04-19T03:28:07.631Z,19.87
2018-04-19T03:30:35.087Z,21.60
2018-04-19T03:33:02.619Z,19.47
2018-04-19T03:35:30.126Z,22.23
2018-04-19T03:37:57.567Z,20.77
2018-04-19T03:40:25.023Z,24.37
2018-04-19T03:42:52.487Z,21.00
2018-04-19T03:45:19.954Z,19.30
2018-04-19T03:47:47.411Z,21.27
2018-04-19T03:50:15.663Z,22.57
2018-04-19T03:52:43.127Z,18.87
2018-04-19T03:55:11.354Z,21.67
2018-04-19T03:57:38.810Z,22.53
2018-04-19T04:00:07.066Z,25.60
2018-04-19T04:02:34.583Z,22.47
2018-04-19T04:05:02.050Z,25.10
2018-04-19T04:07:29.505Z,26.20
2018-04-19T04:09:56.959Z,26.13
2018-04-19T04:12:25.194Z,23.33
2018-04-19T04:14:52.651Z,21.03
2018-04-19T04:17:32.784Z,25.00
2018-04-19T04:23:24.298Z,27.13
2018-04-19T04:25:51.758Z,26.50
2018-04-19T04:28:20.003Z,25.33
2018-04-19T04:30:47.444Z,25.80
2018-04-19T04:33:15.750Z,24.20
2018-04-19T04:35:43.205Z,28.40
2018-04-19T04:38:10.670Z,26.87
2018-04-19T04:40:38.160Z,26.57
2018-04-19T04:43:06.405Z,24.50
2018-04-19T04:45:34.622Z,24.70
2018-04-19T04:48:02.070Z,24.77
2018-04-19T04:50:29.526Z,25.03
2018-04-19T04:52:57.011Z,24.80
2018-04-19T04:55:24.512Z,27.20
2018-04-19T04:57:51.970Z,33.27
2018-04-19T05:00:19.473Z,26.73
2018-04-19T05:02:46.906Z,26.30
2018-04-19T05:05:14.374Z,28.27
2018-04-19T05:07:41.827Z,23.43
2018-04-19T05:10:09.307Z,34.37
2018-04-19T05:12:37.534Z,29.63
2018-04-19T05:15:05.006Z,25.63
2018-04-19T05:17:33.263Z,29.67
2018-04-19T05:20:00.762Z,26.20
2018-04-19T05:22:28.207Z,24.20
2018-04-19T05:24:55.670Z,24.73
2018-04-19T05:27:23.125Z,24.57
2018-04-19T05:29:51.291Z,25.60
2018-04-19T05:32:19.210Z,23.57
2018-04-19T05:34:46.718Z,33.63
2018-04-19T05:37:15.005Z,27.47
2018-04-19T05:39:42.606Z,29.20
2018-04-19T05:42:10.064Z,24.70
2018-04-19T05:44:37.534Z,26.80
2018-04-19T05:47:05.012Z,26.13
2018-04-19T05:49:32.487Z,27.10
2018-04-19T05:51:59.956Z,24.90
2018-04-19T05:54:27.465Z,28.80
2018-04-19T05:56:54.961Z,25.00
2018-04-19T05:59:22.418Z,28.17
2018-04-19T06:01:49.878Z,26.80
2018-04-19T06:04:18.130Z,21.30
2018-04-19T06:06:45.607Z,24.70
2018-04-19T06:09:13.832Z,21.70
2018-04-19T06:11:41.335Z,22.77
2018-04-19T06:14:08.786Z,22.10
2018-04-19T06:16:36.259Z,22.90
2018-04-19T06:19:03.744Z,22.20
2018-04-19T06:21:31.975Z,21.07
2018-04-19T06:23:59.439Z,20.43
2018-04-19T06:26:27.665Z,19.73
2018-04-19T06:28:55.109Z,19.80
2018-04-19T06:31:22.564Z,20.20
2018-04-19T06:33:50.002Z,22.33
2018-04-19T06:36:17.450Z,19.47
2018-04-19T06:38:44.919Z,21.40
2018-04-19T06:41:12.451Z,18.70
2018-04-19T06:43:41.110Z,18.33
2018-04-19T06:46:08.579Z,17.80
2018-04-19T06:48:36.787Z,17.03
2018-04-19T06:51:04.258Z,15.60
2018-04-19T06:53:31.715Z,15.87
2018-04-19T06:55:59.180Z,17.17
2018-04-19T06:58:26.636Z,15.47
2018-04-19T07:00:54.470Z,15.80
2018-04-19T07:03:22.665Z,15.83
2018-04-19T07:05:50.133Z,15.23
2018-04-19T07:08:17.645Z,14.13
2018-04-19T07:10:45.149Z,14.70
2018-04-19T07:13:12.612Z,14.47
2018-04-19T07:15:40.136Z,15.87
2018-04-19T07:18:08.347Z,13.60
2018-04-19T07:20:35.800Z,16.40
2018-04-19T07:23:03.304Z,17.70
2018-04-19T07:25:30.716Z,15.70
2018-04-19T07:27:58.169Z,14.13
2018-04-19T07:30:25.639Z,20.90
2018-04-19T07:32:53.083Z,14.67
2018-04-19T07:35:20.540Z,14.27
2018-04-19T07:37:47.996Z,15.03
2018-04-19T07:40:15.458Z,13.57
2018-04-19T07:42:42.910Z,16.90
2018-04-19T07:45:10.366Z,14.90
2018-04-19T07:47:38.592Z,15.90
2018-04-19T07:50:06.054Z,13.47
2018-04-19T07:52:33.524Z,14.20
2018-04-19T07:55:01.013Z,12.47
2018-04-19T07:57:28.471Z,12.60
2018-04-19T07:59:55.930Z,14.03
2018-04-19T08:02:24.171Z,14.57
2018-04-19T08:04:51.630Z,15.77
2018-04-19T08:07:19.090Z,15.00
2018-04-19T08:09:47.342Z,15.10
2018-04-19T08:12:14.787Z,13.03
2018-04-19T08:14:42.267Z,17.13
2018-04-19T08:17:09.720Z,14.50
2018-04-19T08:19:37.174Z,12.30
2018-04-19T08:22:04.649Z,14.27
2018-04-19T08:24:32.121Z,14.17
2018-04-19T08:27:01.327Z,13.27
2018-04-19T08:29:28.799Z,14.43
2018-04-19T08:31:56.244Z,13.47
2018-04-19T08:34:23.674Z,13.27
2018-04-19T08:36:51.152Z,13.50
2018-04-19T08:39:18.820Z,14.97
2018-04-19T08:41:47.035Z,13.93
2018-04-19T08:44:14.490Z,14.03
2018-04-19T08:46:41.955Z,14.93
2018-04-19T08:49:09.413Z,13.83
2018-04-19T08:51:37.617Z,17.53
2018-04-19T08:54:05.080Z,12.57
2018-04-19T08:56:32.649Z,20.07
2018-04-19T08:59:00.127Z,14.03
2018-04-19T09:01:27.588Z,14.90
2018-04-19T09:03:55.043Z,12.63
2018-04-19T09:06:22.502Z,12.53
2018-04-19T09:08:49.960Z,14.07
2018-04-19T09:11:17.444Z,12.80
2018-04-19T09:13:44.894Z,15.57
2018-04-19T09:16:12.366Z,14.70
2018-04-19T09:18:39.807Z,14.70
2018-04-19T09:21:07.275Z,14.40
2018-04-19T09:23:35.235Z,13.50
2018-04-19T09:26:03.499Z,14.70
2018-04-19T09:28:30.974Z,13.80
2018-04-19T09:30:58.437Z,15.70
2018-04-19T09:33:25.883Z,13.83
2018-04-19T09:35:53.350Z,12.33
2018-04-19T09:38:20.811Z,16.83
2018-04-19T09:40:48.274Z,12.73
2018-04-19T09:43:15.734Z,12.70
2018-04-19T09:45:43.281Z,13.40
2018-04-19T09:48:10.783Z,13.53
2018-04-19T09:50:38.243Z,11.90
2018-04-19T09:53:05.703Z,14.40
2018-04-19T09:55:33.159Z,13.80
2018-04-19T09:58:08.300Z,18.50
2018-04-19T10:00:41.380Z,13.07
2018-04-19T10:03:23.394Z,15.63
2018-04-19T10:05:57.238Z,14.87
2018-04-19T10:08:24.711Z,13.63
2018-04-19T10:10:52.197Z,11.23
2018-04-19T10:13:19.671Z,14.97
2018-04-19T10:15:47.125Z,14.60
2018-04-19T10:18:14.744Z,12.93
2018-04-19T10:20:42.197Z,16.80
2018-04-19T10:23:09.688Z,13.30
2018-04-19T10:25:37.146Z,14.00
2018-04-19T10:28:04.663Z,14.47
2018-04-19T10:30:32.120Z,14.87
2018-04-19T10:32:59.577Z,12.97
2018-04-19T10:35:27.849Z,12.10
2018-04-19T10:37:56.123Z,15.53
2018-04-19T10:40:23.573Z,13.73
2018-04-19T10:42:51.035Z,11.43
2018-04-19T10:45:19.406Z,13.30
2018-04-19T10:47:46.876Z,12.20
2018-04-19T10:50:14.332Z,11.60
2018-04-19T10:52:41.782Z,13.23
2018-04-19T10:55:10.005Z,13.23
2018-04-19T10:57:37.468Z,13.97
2018-04-19T11:00:04.933Z,14.40
2018-04-19T11:02:33.178Z,18.70
2018-04-19T11:05:00.627Z,19.97
2018-04-19T11:07:28.834Z,12.90
2018-04-19T11:09:56.290Z,13.30
2018-04-19T11:12:23.742Z,16.00
2018-04-19T11:14:51.195Z,14.30
2018-04-19T11:17:18.665Z,13.03
2018-04-19T11:19:46.154Z,13.83
2018-04-19T11:22:13.619Z,10.20
2018-04-19T11:24:41.604Z,10.93
2018-04-19T11:27:09.063Z,11.27
2018-04-19T11:29:36.505Z,9.17
2018-04-19T11:32:03.975Z,7.70
2018-04-19T11:34:31.436Z,8.87
2018-04-19T11:36:58.869Z,8.63
2018-04-19T11:39:26.327Z,9.90
2018-04-19T11:41:53.783Z,10.13
2018-04-19T11:44:21.260Z,11.80
2018-04-19T11:46:48.720Z,11.60
2018-04-19T11:49:16.992Z,9.03
2018-04-19T11:51:44.458Z,10.40
2018-04-19T11:54:11.915Z,11.47
2018-04-19T11:56:39.400Z,12.67
2018-04-19T11:59:06.854Z,14.80
2018-04-19T12:01:34.369Z,12.63
2018-04-19T12:04:02.591Z,11.20
2018-04-19T12:06:30.817Z,14.13
2018-04-19T12:08:58.314Z,10.57
2018-04-19T12:11:26.342Z,9.83
2018-04-19T12:13:53.806Z,10.90
2018-04-19T12:16:21.258Z,10.33
2018-04-19T12:18:48.717Z,11.40
2018-04-19T12:21:16.180Z,11.43
2018-04-19T12:23:43.631Z,10.77
2018-04-19T12:26:11.094Z,12.83
2018-04-19T12:28:38.547Z,10.13
2018-04-19T12:31:06.005Z,11.73
2018-04-19T12:33:33.460Z,9.13
2018-04-19T12:36:01.278Z,12.33
2018-04-19T12:38:29.624Z,10.57
2018-04-19T12:40:57.066Z,9.63
2018-04-19T12:43:24.540Z,9.77
2018-04-19T12:45:51.991Z,10.37
2018-04-19T12:48:19.470Z,8.70
2018-04-19T12:50:46.922Z,9.00
2018-04-19T12:53:14.436Z,11.33
2018-04-19T12:55:41.877Z,15.73
2018-04-19T12:58:09.303Z,9.20
2018-04-19T13:00:36.758Z,10.30
2018-04-19T13:03:04.221Z,12.00
2018-04-19T13:05:31.664Z,12.50
2018-04-19T13:07:59.898Z,11.20
2018-04-19T13:10:27.364Z,10.93
2018-04-19T13:12:55.619Z,12.53
2018-04-19T13:15:23.046Z,11.00
2018-04-19T13:17:50.497Z,16.20
2018-04-19T13:20:17.945Z,14.37
2018-04-19T13:22:45.397Z,14.00
2018-04-19T13:25:13.633Z,13.70
2018-04-19T13:27:42.050Z,17.60
2018-04-19T13:30:09.535Z,12.50
2018-04-19T13:32:36.992Z,13.17
2018-04-19T13:35:04.448Z,12.37
2018-04-19T13:37:32.730Z,9.93
2018-04-19T13:40:00.198Z,11.07
2018-04-19T13:42:27.637Z,10.23
2018-04-19T13:44:55.099Z,12.43
2018-04-19T13:47:22.643Z,9.50
2018-04-19T13:49:50.111Z,11.80
2018-04-19T13:52:17.572Z,10.87
2018-04-19T13:54:45.028Z,9.73
2018-04-19T13:57:15.322Z,11.53
2018-04-19T13:59:42.804Z,11.30
2018-04-19T14:02:10.320Z,12.20
2018-04-19T14:04:37.777Z,12.07
2018-04-19T14:07:05.254Z,11.93
2018-04-19T14:09:32.733Z,12.93
2018-04-19T14:12:00.192Z,13.23
2018-04-19T14:14:28.910Z,11.53
2018-04-19T14:16:56.341Z,11.07
2018-04-19T14:19:23.848Z,11.43
2018-04-19T14:21:51.309Z,10.83
2018-04-19T14:24:18.774Z,10.57
2018-04-19T14:26:46.316Z,14.50
2018-04-19T14:29:13.824Z,10.97
2018-04-19T14:31:41.386Z,11.40
2018-04-19T14:34:08.893Z,8.97
2018-04-19T14:36:36.404Z,11.57
2018-04-19T14:39:03.892Z,10.00
2018-04-19T14:41:31.340Z,11.83
2018-04-19T14:43:59.584Z,9.73
2018-04-19T14:46:27.046Z,13.23
2018-04-19T14:48:55.268Z,10.27
2018-04-19T14:51:23.206Z,9.70
2018-04-19T14:53:51.469Z,9.43
2018-04-19T14:56:18.935Z,9.90
2018-04-19T14:58:47.431Z,11.67
2018-04-19T15:01:14.986Z,9.03
2018-04-19T15:03:42.430Z,11.80
2018-04-19T15:06:10.663Z,12.10
2018-04-19T15:08:38.131Z,12.23
2018-04-19T15:11:06.361Z,12.20
2018-04-19T15:13:33.808Z,8.57
2018-04-19T15:16:01.258Z,9.40
2018-04-19T15:18:28.702Z,8.90
2018-04-19T15:20:56.784Z,12.40
2018-04-19T15:23:24.248Z,10.60
2018-04-19T15:25:51.738Z,8.97
2018-04-19T15:28:19.187Z,7.47
2018-04-19T15:30:46.636Z,8.03
2018-04-19T15:33:14.070Z,8.27
2018-04-19T15:35:41.514Z,10.37
2018-04-19T15:38:08.985Z,9.77
2018-04-19T15:40:37.189Z,12.63
2018-04-19T15:43:05.341Z,7.87
2018-04-19T15:45:32.812Z,8.03
2018-04-19T15:48:00.346Z,10.23
2018-04-19T15:50:27.884Z,7.63
2018-04-19T15:52:55.341Z,8.40
2018-04-19T15:55:23.592Z,12.73
2018-04-19T15:57:51.072Z,7.93
2018-04-19T16:00:19.295Z,6.63
2018-04-19T16:02:46.738Z,6.23
2018-04-19T16:05:14.176Z,7.83
2018-04-19T16:07:42.021Z,6.83
2018-04-19T16:10:09.463Z,5.90
2018-04-19T16:12:36.921Z,7.00
2018-04-19T16:15:04.426Z,8.77
2018-04-19T16:17:31.900Z,9.70
2018-04-19T16:19:59.323Z,10.70
2018-04-19T16:22:26.770Z,7.03
2018-04-19T16:24:54.292Z,6.43
2018-04-19T16:27:21.783Z,5.90
2018-04-19T16:29:49.242Z,8.87
2018-04-19T16:32:16.694Z,4.00
2018-04-19T16:34:44.180Z,6.20
2018-04-19T16:37:11.683Z,8.23
2018-04-19T16:39:39.885Z,4.73
2018-04-19T16:42:07.376Z,4.33
2018-04-19T16:44:34.806Z,4.60
2018-04-19T16:47:02.300Z,8.87
2018-04-19T16:49:31.757Z,7.37
2018-04-19T16:51:59.212Z,8.63
2018-04-19T16:54:26.682Z,5.00
2018-04-19T16:56:54.259Z,6.20
2018-04-19T16:59:21.764Z,6.97
2018-04-19T17:01:49.213Z,4.33
2018-04-19T17:04:16.656Z,7.03
2018-04-19T17:06:44.113Z,4.70
2018-04-19T17:09:11.611Z,5.87
2018-04-19T17:11:39.078Z,8.10
2018-04-19T17:14:06.534Z,5.90
2018-04-19T17:16:34.011Z,6.80
2018-04-19T17:19:02.219Z,4.40
2018-04-19T17:21:29.695Z,5.27
2018-04-19T17:23:57.153Z,5.37
2018-04-19T17:26:24.589Z,5.90
2018-04-19T17:28:52.068Z,7.27
2018-04-19T17:31:19.555Z,5.57
2018-04-19T17:33:47.056Z,5.73
2018-04-19T17:36:14.522Z,4.40
2018-04-19T17:38:41.993Z,4.53
2018-04-19T17:41:09.444Z,6.17
2018-04-19T17:43:36.901Z,5.23
2018-04-19T17:46:04.420Z,10.30
2018-04-19T17:48:31.860Z,7.10
2018-04-19T17:50:59.301Z,7.57
2018-04-19T17:53:27.783Z,8.50
2018-04-19T17:55:55.213Z,5.13
2018-04-19T17:58:22.670Z,10.00
2018-04-19T18:00:50.120Z,6.70
2018-04-19T18:03:18.351Z,6.43
2018-04-19T18:05:45.812Z,3.80
2018-04-19T18:08:13.266Z,6.57
2018-04-19T18:10:41.474Z,4.60
2018-04-19T18:13:09.102Z,3.93
2018-04-19T18:15:37.191Z,6.30
2018-04-19T18:18:04.675Z,9.93
2018-04-19T18:20:32.101Z,4.43
2018-04-19T18:22:59.598Z,5.50
2018-04-19T18:25:26.982Z,8.90
2018-04-19T18:27:54.503Z,5.67
2018-04-19T18:30:21.912Z,4.33
2018-04-19T18:32:49.372Z,9.73
2018-04-19T18:35:16.831Z,4.40
2018-04-19T18:37:44.270Z,7.50
2018-04-19T18:40:11.878Z,7.20
2018-04-19T18:42:40.666Z,7.53
2018-04-19T18:45:09.774Z,4.00
2018-04-19T18:47:37.826Z,5.73
2018-04-19T18:50:07.151Z,5.93
2018-04-19T18:52:34.915Z,8.53
2018-04-19T18:55:03.162Z,5.23
2018-04-19T18:57:30.619Z,6.10
2018-04-19T18:59:58.847Z,7.50
2018-04-19T19:02:27.072Z,7.40
2018-04-19T19:04:54.785Z,5.07
2018-04-19T19:07:22.256Z,4.60
2018-04-19T19:09:49.721Z,4.30
2018-04-19T19:12:17.193Z,5.43
2018-04-19T19:14:44.654Z,8.07
2018-04-19T19:17:23.723Z,11.27
2018-04-19T19:20:03.023Z,6.30
2018-04-19T19:22:30.492Z,5.10
2018-04-19T19:24:57.965Z,10.37
2018-04-19T19:27:25.417Z,5.67
2018-04-19T19:29:53.643Z,7.13
2018-04-19T19:32:21.098Z,9.90
2018-04-19T19:34:48.551Z,9.13
2018-04-19T19:37:17.041Z,6.10
2018-04-19T19:39:45.262Z,6.07
2018-04-19T19:42:12.747Z,8.90
2018-04-19T19:44:40.952Z,5.93
2018-04-19T19:47:08.398Z,6.90
2018-04-19T19:49:35.887Z,6.40
2018-04-19T19:52:03.326Z,6.23
2018-04-19T19:54:30.808Z,6.30
2018-04-19T19:56:58.238Z,6.00
2018-04-19T19:59:25.718Z,15.07
2018-04-19T20:01:53.159Z,11.37
2018-04-19T20:04:21.403Z,32.70
2018-04-19T20:06:48.849Z,12.27
2018-04-19T20:09:16.389Z,9.33
2018-04-19T20:11:43.850Z,8.03
2018-04-19T20:14:11.340Z,10.13
2018-04-19T20:16:39.542Z,7.40
2018-04-19T20:19:07.083Z,8.30
2018-04-19T20:21:34.539Z,8.77
2018-04-19T20:24:02.052Z,7.10
2018-04-19T20:26:29.543Z,6.63
2018-04-19T20:28:57.014Z,7.83
2018-04-19T20:31:24.467Z,5.93
2018-04-19T20:33:52.795Z,7.60
2018-04-19T20:36:21.019Z,9.03
2018-04-19T20:38:48.485Z,6.23
2018-04-19T20:41:15.935Z,9.33
2018-04-19T20:43:43.379Z,8.60
2018-04-19T20:46:10.855Z,5.40
2018-04-19T20:48:38.312Z,7.07
2018-04-19T20:51:05.768Z,10.03
2018-04-19T20:53:33.234Z,6.47
2018-04-19T20:56:00.682Z,9.33
2018-04-19T20:58:28.143Z,7.80
2018-04-19T21:00:56.187Z,8.60
2018-04-19T21:03:23.678Z,10.70
2018-04-19T21:05:51.144Z,10.23
2018-04-19T21:08:18.590Z,7.83
2018-04-19T21:10:46.035Z,11.07
2018-04-19T21:13:13.544Z,12.07
2018-04-19T21:15:41.012Z,12.70
2018-04-19T21:18:08.468Z,8.43
2018-04-19T21:20:35.946Z,7.80
2018-04-19T21:23:03.434Z,8.50
2018-04-19T21:25:31.022Z,9.33
2018-04-19T21:27:58.453Z,10.87
2018-04-19T21:30:26.678Z,9.70
2018-04-19T21:32:54.174Z,11.03
2018-04-19T21:35:21.640Z,10.53
2018-04-19T21:37:49.082Z,10.23
2018-04-19T21:40:16.538Z,8.47
2018-04-19T21:42:44.743Z,9.20
2018-04-19T21:45:12.194Z,7.33
2018-04-19T21:47:39.626Z,7.13
2018-04-19T21:50:07.105Z,8.70
2018-04-19T21:52:34.544Z,9.30
2018-04-19T21:55:02.024Z,7.07
2018-04-19T21:57:30.266Z,12.60
2018-04-19T21:59:57.750Z,6.20
2018-04-19T22:02:25.191Z,10.00
2018-04-19T22:04:52.660Z,11.50
2018-04-19T22:07:20.106Z,10.83
2018-04-19T22:09:47.646Z,7.33
2018-04-19T22:12:15.646Z,13.50
2018-04-19T22:14:43.892Z,9.10
2018-04-19T22:17:11.353Z,13.73
2018-04-19T22:19:40.160Z,15.60
2018-04-19T22:22:07.615Z,8.67
2018-04-19T22:24:35.075Z,10.20
2018-04-19T22:27:03.320Z,10.00
2018-04-19T22:29:30.845Z,11.50
2018-04-19T22:31:58.264Z,9.87
2018-04-19T22:34:25.718Z,12.50
2018-04-19T22:36:53.182Z,7.73
2018-04-19T22:39:20.642Z,9.90
2018-04-19T22:41:48.143Z,8.63
2018-04-19T22:44:16.363Z,12.17
2018-04-19T22:46:43.823Z,14.03
2018-04-19T22:49:11.281Z,8.03
2018-04-19T22:51:39.547Z,9.40
2018-04-19T22:54:07.002Z,11.73
2018-04-19T22:56:34.467Z,12.23
2018-04-19T22:59:01.913Z,12.33
2018-04-19T23:01:29.372Z,11.10
2018-04-19T23:03:56.887Z,8.57
2018-04-19T23:06:24.347Z,34.33
2018-04-19T23:08:51.862Z,16.53
2018-04-19T23:11:19.310Z,10.37
2018-04-19T23:13:46.783Z,8.90
2018-04-19T23:16:14.227Z,6.40
2018-04-19T23:18:41.678Z,9.03
2018-04-19T23:21:09.133Z,6.07
2018-04-19T23:23:36.594Z,6.50
2018-04-19T23:26:04.053Z,7.47
2018-04-19T23:28:31.506Z,6.00
2018-04-19T23:30:58.958Z,8.07
2018-04-19T23:33:26.406Z,5.43
2018-04-19T23:35:53.868Z,5.87
2018-04-19T23:38:21.326Z,8.40
2018-04-19T23:40:48.798Z,6.50
2018-04-19T23:43:17.019Z,7.07
2018-04-19T23:45:44.475Z,9.33
2018-04-19T23:48:11.931Z,6.20
2018-04-19T23:50:39.370Z,9.20
2018-04-19T23:53:06.843Z,5.43
2018-04-19T23:55:35.121Z,6.60
2018-04-19T23:58:02.541Z,9.00
